Aeroporto :
LOGIN :

Iscrizione | Disclaimer

   EN    FR    IT 

 










Sommario :    VFR   VFR Marginale   IFR   IFR Intensivo   IFR Molto Intensivo
Visibilità : 
Base nubi : 
>= 8 km
>= 3000ft
5 / 8 km
1000 / 3000 ft
1500m / 5 km
500 / 1000 ft
800 / 1500m
200 / 500 ft
< 800m
< 200 ft
Simboli :   Temporali  Nebbia  Neve Forte  Precipitazioni Forti  Vento > 20 kt
SIGMETs :   Varie  Temporali  Ghiacco  Turbolenza  Onda orograficha  Ceneri Vulcaniche






- Altitudine del aeroporto : 424 ft
- Codice IATA : QGY


LHPR - Györ Per

ULTIMO METAR :
  • 311015Z AUTO 31020KT CAVOK 15/10 Q1022 NOSIG

METARs OBSOLETI :
  • 310945Z AUTO 31020KT 9999 -SHRA NSC 14/10 Q1022 NOSIG
  • 310915Z AUTO 31022KT CAVOK 14/10 Q1022 NOSIG
  • 310845Z AUTO 30017KT CAVOK 15/10 Q1022 NOSIG
  • 310815Z AUTO 30017G27KT CAVOK 15/10 Q1022 NOSIG
  • 310745Z AUTO 30013KT 260V320 CAVOK 14/10 Q1022 NOSIG

TAF TAF LHPR
Valido dal 31 a 09 ore il 31 a 18 ore UTC


310815Z 3109/3118 30015KT CAVOK
PROB30
TEMPO 3109/3112 SHRA FEW020 SCT040 BKN080
BECMG 3114/3116 VRB05KT



MetMap, La meteo Aeronautica in un colpo d'occhio ! - Copyright ORBIFLY Dicembre 2007 - Disclaimer

ORBIFLY MET'MAP TEAM :

Programmazione e sviluppo : Alexandra Zaïnal
Concezione : Baudouin d'Aumeries
Aiuto per la programmazione : Marc-Olivier Méhu
Supporto tecnico e logistico : Manuel Goepfert
Aiuto per la traduzione : Arnaldo La Scala

Contatto : metmap@orbifly.com




FONTI E CREDITI :

   NOAA